Windthorst, Texas
Current Conditions -  °F | °C
As of 10:15 PM on Wednesday 22 Oct 2014 (Local Time) from KCWC Reporting Station
Broken Clouds Broken Clouds  
Wind Chill: 68°   Ceiling: 11000
Heat Index: 68°   Visibility: 10mi
Dew Point: 59°   Wind: 7mph
Humidity: 72%   Direction: 340°NNW
Pressure: 30.13"   Gusts: NA
Location:  33.58°N, 98.44°W
Report Text: KCWC 230315Z AUTO 34006KT 10SM BKN110 20/15 A3013 RMK AO2 T02000149
Loading
Personal Weather Stations






























Interactive Weather Map
Tropical Storm Tracking
New forecast layout! Learn more

10-Day Weather Forecast

Advertisements
Track Severe Weather on mobile